| Date | Time | Temp. (oF) | Dew Point (oF) | Rel. Hum. (%) | Press. (in.) | Wind Dir. | Wind Speed (mph) | Hourly Rainfall (in.) |
|
|---|---|---|---|---|---|---|---|---|---|
| 1 | 01/17 | 00:00 | 35 | 29 | 79 | 30.26 | NW | 0 | 0.00 |
| 2 | 01/16 | 23:00 | 35 | 27 | 74 | 30.29 | NW | 0 | 0.00 |
| 3 | 01/16 | 22:00 | 35 | 26 | 72 | 30.31 | NW | 0 | 0.00 |
| 4 | 01/16 | 21:00 | 35 | 26 | 71 | 30.33 | NW | 2 | 0.00 |
| 5 | 01/16 | 20:00 | 35 | 26 | 71 | 30.32 | NW | 1 | 0.00 |
| 6 | 01/16 | 19:00 | 35 | 25 | 68 | 30.33 | NW | 2 | 0.00 |
| 7 | 01/16 | 18:00 | 35 | 24 | 66 | 30.34 | NW | 0 | 0.00 |
| 8 | 01/16 | 17:00 | 36 | 24 | 64 | 30.35 | NW | 3 | 0.00 |
| 9 | 01/16 | 16:00 | 36 | 23 | 61 | 30.35 | NW | 3 | 0.00 |
| 10 | 01/16 | 15:00 | 36 | 23 | 60 | 30.36 | NW | 3 | 0.00 |
| 11 | 01/16 | 14:00 | 37 | 24 | 60 | 30.36 | NW | 2 | 0.00 |
| 12 | 01/16 | 13:00 | 37 | 26 | 66 | 30.38 | NW | 1 | 0.00 |
| 13 | 01/16 | 12:00 | 36 | 24 | 64 | 30.42 | NW | 4 | 0.00 |
| 14 | 01/16 | 11:00 | 34 | 26 | 74 | 30.45 | NW | 0 | 0.00 |
| 15 | 01/16 | 10:00 | 29 | 24 | 84 | 30.47 | NW | 0 | 0.00 |
| 16 | 01/16 | 09:00 | 23 | 22 | 98 | 30.46 | NW | 0 | 0.00 |
| 17 | 01/16 | 08:00 | 19 | 18 | 99 | 30.46 | NW | 0 | 0.00 |
| 18 | 01/16 | 07:00 | 19 | 18 | 98 | 30.46 | NW | 0 | 0.00 |
| 19 | 01/16 | 06:00 | 19 | 18 | 99 | 30.44 | NW | 0 | 0.00 |
| 20 | 01/16 | 05:00 | 20 | 19 | 96 | 30.43 | NW | 0 | 0.00 |
| 21 | 01/16 | 04:00 | 21 | 20 | 98 | 30.42 | NW | 0 | 0.00 |
| 22 | 01/16 | 03:00 | 22 | 21 | 96 | 30.44 | NW | 0 | 0.00 |
| 23 | 01/16 | 02:00 | 22 | 20 | 92 | 30.42 | NW | 0 | 0.00 |
| 24 | 01/16 | 01:00 | 23 | 20 | 90 | 30.41 | NW | 0 | 0.00 |